Time;durP1;ratioP1;P1;durP2;ratioP2;P2;SDS_P1;SDS_P2;PMS_P1;PMS_P2;Temp;Humidity;BMP_temperature;BMP_pressure;BME280_temperature;BME280_humidity;BME280_pressure;Samples;Min_cycle;Max_cycle;Signal;HPM_P1;HPM_P2
2024/01/07 00:01:48;;;;;;;8.40;5.10;;;;;;;;;;5081074;28;20391;-87
2024/01/07 00:04:15;;;;;;;7.05;5.35;;;;;;;;;;5061277;28;20040;-86
2024/01/07 00:06:41;;;;;;;7.32;4.53;;;;;;;;;;5087036;28;20512;-85
2024/01/07 00:09:08;;;;;;;7.97;5.15;;;;;;;;;;5056711;28;20035;-86
2024/01/07 00:11:34;;;;;;;8.60;5.78;;;;;;;;;;5058057;28;20044;-87
2024/01/07 00:14:01;;;;;;;10.15;5.70;;;;;;;;;;5054029;28;20432;-86
2024/01/07 00:16:27;;;;;;;7.25;5.78;;;;;;;;;;5073364;28;20040;-84
2024/01/07 00:18:53;;;;;;;12.32;5.93;;;;;;;;;;5071425;28;20089;-86
2024/01/07 00:21:19;;;;;;;7.05;5.00;;;;;;;;;;5050341;28;20062;-86
2024/01/07 00:23:45;;;;;;;7.97;5.57;;;;;;;;;;5074677;28;20491;-87
2024/01/07 00:26:11;;;;;;;7.85;5.40;;;;;;;;;;5085748;28;20628;-86
2024/01/07 00:28:38;;;;;;;8.63;5.75;;;;;;;;;;5095300;28;20036;-85
2024/01/07 00:31:04;;;;;;;7.28;4.55;;;;;;;;;;5091129;28;20510;-85
2024/01/07 00:33:32;;;;;;;8.13;5.45;;;;;;;;;;5088119;28;20036;-83
2024/01/07 00:35:58;;;;;;;7.00;5.20;;;;;;;;;;5078645;28;20093;-86
2024/01/07 00:38:24;;;;;;;10.32;5.53;;;;;;;;;;5081945;28;20035;-86
2024/01/07 00:40:50;;;;;;;7.18;5.57;;;;;;;;;;5095852;28;20380;-86
2024/01/07 00:43:16;;;;;;;7.68;5.50;;;;;;;;;;5072221;28;20044;-87
2024/01/07 00:45:43;;;;;;;8.35;5.43;;;;;;;;;;5092639;28;20032;-85
2024/01/07 00:48:10;;;;;;;7.20;5.00;;;;;;;;;;5075175;28;20071;-82
2024/01/07 00:50:36;;;;;;;9.07;5.32;;;;;;;;;;5102575;28;20035;-86
2024/01/07 00:53:02;;;;;;;6.57;5.10;;;;;;;;;;5092793;28;20039;-86
2024/01/07 00:55:28;;;;;;;7.90;4.72;;;;;;;;;;5070724;28;20744;-86
2024/01/07 00:57:54;;;;;;;7.25;4.95;;;;;;;;;;5060174;28;20138;-85
2024/01/07 01:00:20;;;;;;;9.82;5.22;;;;;;;;;;5091621;28;20402;-86
2024/01/07 01:02:47;;;;;;;8.82;4.90;;;;;;;;;;5097522;28;20036;-87
2024/01/07 01:05:13;;;;;;;9.27;5.47;;;;;;;;;;5094541;28;20042;-87
2024/01/07 01:07:43;;;;;;;6.78;4.45;;;;;;;;;;5089288;28;20042;-86
2024/01/07 01:10:09;;;;;;;6.70;4.38;;;;;;;;;;5061605;28;20458;-85
2024/01/07 01:12:35;;;;;;;7.60;4.35;;;;;;;;;;5074521;28;20090;-86
2024/01/07 01:15:01;;;;;;;7.18;4.50;;;;;;;;;;5094047;28;20179;-86
2024/01/07 01:17:27;;;;;;;6.43;4.57;;;;;;;;;;5068565;28;20048;-86
2024/01/07 01:19:53;;;;;;;9.73;4.70;;;;;;;;;;5068929;28;20043;-86
2024/01/07 01:22:19;;;;;;;6.35;3.60;;;;;;;;;;5083731;28;20044;-86
2024/01/07 01:24:45;;;;;;;5.80;3.78;;;;;;;;;;5065756;28;20037;-85
2024/01/07 01:27:13;;;;;;;5.10;3.85;;;;;;;;;;5068811;28;20479;-85
2024/01/07 01:29:39;;;;;;;4.80;3.63;;;;;;;;;;5083956;28;20357;-83
2024/01/07 01:32:06;;;;;;;5.90;4.30;;;;;;;;;;5071279;28;20036;-84
2024/01/07 01:34:32;;;;;;;5.72;4.40;;;;;;;;;;5096932;28;20036;-85
2024/01/07 01:36:58;;;;;;;9.25;4.05;;;;;;;;;;5088727;28;20036;-84
2024/01/07 01:39:24;;;;;;;7.10;4.03;;;;;;;;;;5075396;28;20118;-85
2024/01/07 01:41:51;;;;;;;9.10;4.40;;;;;;;;;;5073238;28;20059;-83
2024/01/07 01:44:17;;;;;;;5.55;3.75;;;;;;;;;;5070481;28;20040;-78
2024/01/07 01:46:45;;;;;;;5.68;4.03;;;;;;;;;;5049956;28;20076;-80
2024/01/07 01:49:12;;;;;;;3.88;3.30;;;;;;;;;;5088712;28;20044;-80
2024/01/07 01:51:38;;;;;;;4.53;3.90;;;;;;;;;;5072694;28;20115;-80
2024/01/07 01:54:04;;;;;;;8.13;4.60;;;;;;;;;;5061621;28;20093;-81
2024/01/07 01:56:30;;;;;;;7.97;3.70;;;;;;;;;;5070000;28;20491;-81
2024/01/07 01:58:56;;;;;;;6.43;3.33;;;;;;;;;;5070980;28;20071;-80
2024/01/07 02:01:26;;;;;;;4.57;3.10;;;;;;;;;;5085698;28;20078;-80
2024/01/07 02:03:53;;;;;;;7.32;3.60;;;;;;;;;;5068334;28;20089;-79
2024/01/07 02:06:20;;;;;;;6.88;3.50;;;;;;;;;;5080130;28;20413;-79
2024/01/07 02:08:46;;;;;;;3.90;3.17;;;;;;;;;;5075829;28;20036;-80
2024/01/07 02:11:19;;;;;;;7.40;3.60;;;;;;;;;;5082845;28;20044;-80
2024/01/07 02:13:45;;;;;;;5.45;3.38;;;;;;;;;;5079285;28;20112;-78
2024/01/07 02:16:11;;;;;;;4.88;3.25;;;;;;;;;;5086400;28;20048;-79
2024/01/07 02:18:38;;;;;;;5.00;3.85;;;;;;;;;;5055914;28;20028;-79
2024/01/07 02:21:04;;;;;;;5.43;3.40;;;;;;;;;;5087797;28;20444;-79
2024/01/07 02:23:30;;;;;;;5.15;3.83;;;;;;;;;;5073602;28;20039;-80
2024/01/07 02:25:56;;;;;;;8.15;3.20;;;;;;;;;;5067613;28;20108;-81
2024/01/07 02:28:22;;;;;;;5.80;3.30;;;;;;;;;;5087188;28;20040;-82
2024/01/07 02:30:48;;;;;;;3.97;3.03;;;;;;;;;;5073034;28;20625;-81
2024/01/07 02:33:14;;;;;;;6.70;3.10;;;;;;;;;;5085273;28;20218;-80
2024/01/07 02:35:41;;;;;;;5.45;3.38;;;;;;;;;;5065029;28;20127;-79
2024/01/07 02:38:07;;;;;;;5.43;3.25;;;;;;;;;;5071498;28;20032;-79
2024/01/07 02:40:33;;;;;;;5.93;3.25;;;;;;;;;;5066850;28;20044;-79
2024/01/07 02:42:59;;;;;;;5.20;3.22;;;;;;;;;;5080831;28;20039;-79
2024/01/07 02:45:25;;;;;;;6.30;3.00;;;;;;;;;;5053780;28;20044;-80
2024/01/07 02:47:51;;;;;;;5.90;3.15;;;;;;;;;;5056932;28;20032;-81
2024/01/07 02:50:17;;;;;;;4.65;2.90;;;;;;;;;;5068416;28;20037;-81
2024/01/07 02:52:43;;;;;;;4.28;2.72;;;;;;;;;;5087466;28;20059;-80
2024/01/07 02:55:09;;;;;;;6.30;2.92;;;;;;;;;;5060725;28;20048;-83
2024/01/07 02:57:36;;;;;;;3.80;2.60;;;;;;;;;;5086321;28;20467;-84
2024/01/07 03:00:02;;;;;;;7.10;3.05;;;;;;;;;;5098477;28;20078;-83
2024/01/07 03:02:28;;;;;;;6.22;4.25;;;;;;;;;;5065478;28;20047;-84
2024/01/07 03:04:54;;;;;;;3.78;2.42;;;;;;;;;;5070136;28;20043;-84
2024/01/07 03:07:20;;;;;;;3.83;2.50;;;;;;;;;;5067482;28;20043;-83
2024/01/07 03:09:46;;;;;;;5.18;2.85;;;;;;;;;;5063462;28;20044;-83
2024/01/07 03:12:12;;;;;;;4.57;2.28;;;;;;;;;;5088704;28;20048;-83
2024/01/07 03:14:38;;;;;;;4.88;2.92;;;;;;;;;;5093959;28;20032;-83
2024/01/07 03:17:06;;;;;;;7.00;3.25;;;;;;;;;;5086967;28;20043;-82
2024/01/07 03:19:32;;;;;;;4.40;2.60;;;;;;;;;;5075597;28;20487;-83
2024/01/07 03:21:58;;;;;;;4.68;2.60;;;;;;;;;;5087229;28;20054;-84
2024/01/07 03:24:24;;;;;;;4.60;2.35;;;;;;;;;;5067187;28;20040;-83
2024/01/07 03:26:50;;;;;;;3.35;2.13;;;;;;;;;;5055980;28;20488;-82
2024/01/07 03:29:16;;;;;;;4.03;2.72;;;;;;;;;;5069465;28;20055;-83
2024/01/07 03:31:42;;;;;;;3.78;2.20;;;;;;;;;;5074384;28;20047;-84
2024/01/07 03:34:08;;;;;;;3.90;2.70;;;;;;;;;;5055722;28;20093;-82
2024/01/07 03:36:36;;;;;;;3.88;2.22;;;;;;;;;;5084229;28;20383;-84
2024/01/07 03:39:02;;;;;;;4.25;2.55;;;;;;;;;;5077698;28;20482;-82
2024/01/07 03:41:28;;;;;;;7.72;3.20;;;;;;;;;;5075671;28;20048;-82
2024/01/07 03:43:54;;;;;;;4.55;2.83;;;;;;;;;;5078502;28;20034;-83
2024/01/07 03:46:21;;;;;;;5.72;2.20;;;;;;;;;;5073492;28;20051;-84
2024/01/07 03:48:47;;;;;;;5.63;3.15;;;;;;;;;;5075514;28;20039;-83
2024/01/07 03:51:17;;;;;;;3.42;2.28;;;;;;;;;;5089092;28;20118;-83
2024/01/07 03:53:43;;;;;;;4.88;2.45;;;;;;;;;;5089805;28;21368;-84
2024/01/07 03:56:09;;;;;;;6.63;2.40;;;;;;;;;;5089985;28;20105;-82
2024/01/07 03:58:35;;;;;;;3.47;2.28;;;;;;;;;;5060608;28;20127;-83
2024/01/07 04:01:01;;;;;;;3.90;2.08;;;;;;;;;;5076694;28;20041;-83
2024/01/07 04:03:28;;;;;;;4.85;2.70;;;;;;;;;;5079645;28;20047;-84
2024/01/07 04:05:54;;;;;;;4.75;2.25;;;;;;;;;;5090890;28;20524;-83
2024/01/07 04:08:20;;;;;;;7.35;2.55;;;;;;;;;;5075483;28;20110;-84
2024/01/07 04:10:47;;;;;;;6.20;2.47;;;;;;;;;;5075308;28;20045;-82
2024/01/07 04:13:14;;;;;;;7.10;2.33;;;;;;;;;;5091070;28;20096;-83
2024/01/07 04:15:40;;;;;;;4.47;2.25;;;;;;;;;;5081833;28;20506;-82
2024/01/07 04:18:06;;;;;;;5.43;2.15;;;;;;;;;;5090835;28;20586;-83
2024/01/07 04:20:32;;;;;;;4.93;2.60;;;;;;;;;;5087855;28;20043;-82
2024/01/07 04:22:58;;;;;;;6.05;2.35;;;;;;;;;;5073802;28;20036;-84
2024/01/07 04:25:25;;;;;;;3.28;2.03;;;;;;;;;;5071848;28;20044;-81
2024/01/07 04:27:51;;;;;;;4.85;2.40;;;;;;;;;;5083459;28;20071;-82
2024/01/07 04:30:17;;;;;;;4.50;1.50;;;;;;;;;;5077299;28;20040;-83
2024/01/07 04:32:43;;;;;;;3.92;1.88;;;;;;;;;;5077086;28;20447;-82
2024/01/07 04:35:09;;;;;;;6.90;2.40;;;;;;;;;;5096802;28;20670;-83
2024/01/07 04:37:36;;;;;;;5.88;2.15;;;;;;;;;;5094128;28;20033;-81
2024/01/07 04:40:02;;;;;;;3.75;2.00;;;;;;;;;;5092900;28;20568;-83
2024/01/07 04:42:28;;;;;;;3.72;2.00;;;;;;;;;;5092743;28;20039;-83
2024/01/07 04:44:54;;;;;;;3.58;1.75;;;;;;;;;;5090151;28;20558;-82
2024/01/07 04:47:24;;;;;;;3.30;1.63;;;;;;;;;;5055339;28;20060;-83
2024/01/07 04:49:50;;;;;;;4.82;2.47;;;;;;;;;;5073369;28;20098;-83
2024/01/07 04:52:17;;;;;;;3.55;1.67;;;;;;;;;;5065521;28;20454;-84
2024/01/07 04:54:43;;;;;;;1.77;1.48;;;;;;;;;;5094325;28;20083;-83
2024/01/07 04:57:09;;;;;;;2.35;1.70;;;;;;;;;;5094454;28;20507;-84
2024/01/07 04:59:36;;;;;;;4.95;1.98;;;;;;;;;;5071218;28;20033;-83
2024/01/07 05:02:02;;;;;;;4.40;1.65;;;;;;;;;;5078239;28;20032;-84
2024/01/07 05:04:28;;;;;;;2.50;1.70;;;;;;;;;;5056213;28;20039;-83
2024/01/07 05:06:54;;;;;;;3.40;1.60;;;;;;;;;;5075693;28;20043;-83
2024/01/07 05:09:20;;;;;;;2.15;1.58;;;;;;;;;;5083654;28;20072;-83
2024/01/07 05:11:46;;;;;;;3.05;1.52;;;;;;;;;;5088268;28;20084;-84
2024/01/07 05:14:12;;;;;;;3.33;1.33;;;;;;;;;;5069947;28;20047;-83
2024/01/07 05:16:38;;;;;;;4.18;1.58;;;;;;;;;;5059910;28;20517;-80
2024/01/07 05:19:04;;;;;;;3.72;1.60;;;;;;;;;;5085404;28;20055;-78
2024/01/07 05:21:30;;;;;;;2.10;1.65;;;;;;;;;;5087442;28;20042;-79
2024/01/07 05:23:56;;;;;;;5.85;1.85;;;;;;;;;;5085775;28;20039;-80
2024/01/07 05:26:22;;;;;;;4.68;2.22;;;;;;;;;;5086845;28;20119;-79
2024/01/07 05:28:49;;;;;;;5.35;2.10;;;;;;;;;;5080787;28;20036;-80
2024/01/07 05:31:18;;;;;;;3.50;1.88;;;;;;;;;;5068427;28;20090;-79
2024/01/07 05:33:45;;;;;;;3.55;1.70;;;;;;;;;;5072400;28;20149;-79
2024/01/07 05:36:11;;;;;;;4.10;2.10;;;;;;;;;;5088453;28;20040;-79
2024/01/07 05:38:38;;;;;;;3.53;1.85;;;;;;;;;;5066154;28;20093;-80
2024/01/07 05:41:04;;;;;;;4.30;2.03;;;;;;;;;;5055967;28;20040;-78
2024/01/07 05:43:30;;;;;;;3.28;1.63;;;;;;;;;;5056397;28;20044;-80
2024/01/07 05:45:56;;;;;;;4.68;2.00;;;;;;;;;;5066732;28;20552;-81
2024/01/07 05:48:23;;;;;;;3.35;1.65;;;;;;;;;;5070462;28;20032;-79
2024/01/07 05:50:49;;;;;;;2.70;1.40;;;;;;;;;;5087128;28;20047;-79
2024/01/07 05:53:15;;;;;;;2.55;1.60;;;;;;;;;;5083039;28;20055;-79
2024/01/07 05:55:41;;;;;;;3.10;1.73;;;;;;;;;;5087484;28;20113;-80
2024/01/07 05:58:08;;;;;;;6.95;1.73;;;;;;;;;;5093859;28;20043;-79
2024/01/07 06:00:34;;;;;;;2.97;1.70;;;;;;;;;;5073866;28;20048;-79
2024/01/07 06:03:00;;;;;;;3.38;1.17;;;;;;;;;;5072288;28;20550;-79
2024/01/07 06:05:26;;;;;;;7.13;2.00;;;;;;;;;;5086764;28;20042;-80
2024/01/07 06:07:52;;;;;;;3.90;1.77;;;;;;;;;;5086736;28;20183;-80
2024/01/07 06:10:19;;;;;;;3.70;1.70;;;;;;;;;;5068299;28;20047;-79
2024/01/07 06:12:45;;;;;;;5.57;1.70;;;;;;;;;;5087756;28;20038;-80
2024/01/07 06:15:12;;;;;;;5.28;1.70;;;;;;;;;;5072424;28;20047;-80
2024/01/07 06:17:38;;;;;;;2.58;1.50;;;;;;;;;;5080635;28;20036;-78
2024/01/07 06:20:05;;;;;;;2.65;1.90;;;;;;;;;;5086509;28;20209;-79
2024/01/07 06:22:31;;;;;;;2.97;1.55;;;;;;;;;;5068972;28;20039;-78
2024/01/07 06:24:57;;;;;;;2.08;1.50;;;;;;;;;;5068079;28;20055;-84
2024/01/07 06:27:23;;;;;;;2.72;1.73;;;;;;;;;;5084485;28;20036;-84
2024/01/07 06:29:50;;;;;;;2.42;1.40;;;;;;;;;;5069421;28;20134;-84
2024/01/07 06:32:16;;;;;;;3.92;2.00;;;;;;;;;;5053060;28;20504;-85
2024/01/07 06:34:45;;;;;;;4.75;2.03;;;;;;;;;;5085792;28;20036;-83
2024/01/07 06:37:11;;;;;;;2.25;1.38;;;;;;;;;;5070587;28;20043;-85
2024/01/07 06:39:37;;;;;;;3.47;1.60;;;;;;;;;;5084346;28;20036;-84
2024/01/07 06:42:04;;;;;;;4.22;1.50;;;;;;;;;;5085306;28;20032;-85
2024/01/07 06:44:30;;;;;;;3.00;2.30;;;;;;;;;;5067338;28;20115;-85
2024/01/07 06:46:56;;;;;;;3.90;1.83;;;;;;;;;;5086171;28;20039;-85
2024/01/07 06:49:22;;;;;;;2.50;1.33;;;;;;;;;;5082039;28;20489;-85
2024/01/07 06:51:48;;;;;;;6.15;1.95;;;;;;;;;;5060309;28;20040;-82
2024/01/07 06:54:14;;;;;;;2.03;1.60;;;;;;;;;;5080740;28;20415;-85
2024/01/07 06:56:40;;;;;;;3.72;2.30;;;;;;;;;;5087193;28;20052;-85
2024/01/07 06:59:07;;;;;;;1.55;1.45;;;;;;;;;;5089662;28;20396;-85
2024/01/07 07:01:33;;;;;;;3.03;1.48;;;;;;;;;;5072767;28;20556;-84
2024/01/07 07:04:00;;;;;;;2.17;1.65;;;;;;;;;;5085432;28;20032;-86
2024/01/07 07:06:26;;;;;;;3.30;2.58;;;;;;;;;;5091482;28;20040;-86
2024/01/07 07:08:52;;;;;;;3.65;1.20;;;;;;;;;;5077288;28;20042;-84
2024/01/07 07:11:19;;;;;;;2.22;1.48;;;;;;;;;;5080144;28;20064;-84
2024/01/07 07:13:45;;;;;;;11.93;3.05;;;;;;;;;;5064569;28;20053;-85
2024/01/07 07:16:12;;;;;;;10.48;3.45;;;;;;;;;;5087960;28;20384;-83
2024/01/07 07:18:38;;;;;;;3.70;1.60;;;;;;;;;;5072194;28;20032;-84
2024/01/07 07:21:04;;;;;;;3.17;1.70;;;;;;;;;;5069619;28;20039;-85
2024/01/07 07:23:30;;;;;;;5.32;2.05;;;;;;;;;;5081329;28;20047;-85
2024/01/07 07:25:56;;;;;;;4.10;1.88;;;;;;;;;;5072393;28;20036;-85
2024/01/07 07:28:22;;;;;;;4.00;1.88;;;;;;;;;;5074725;28;20046;-83
2024/01/07 07:30:48;;;;;;;3.15;1.83;;;;;;;;;;5072851;28;20101;-83
2024/01/07 07:33:14;;;;;;;3.05;1.92;;;;;;;;;;5069617;28;20094;-84
2024/01/07 07:35:42;;;;;;;3.30;2.00;;;;;;;;;;5072764;28;20052;-80
2024/01/07 07:38:08;;;;;;;7.55;2.00;;;;;;;;;;5055563;28;20040;-79
2024/01/07 07:40:34;;;;;;;3.13;1.95;;;;;;;;;;5055869;28;20437;-80
2024/01/07 07:43:00;;;;;;;6.03;1.85;;;;;;;;;;5068162;28;20386;-78
2024/01/07 07:45:26;;;;;;;2.38;1.85;;;;;;;;;;5073914;28;20039;-80
2024/01/07 07:47:52;;;;;;;2.50;1.80;;;;;;;;;;5058489;28;20075;-79
2024/01/07 07:50:18;;;;;;;3.20;1.70;;;;;;;;;;5071966;28;20533;-80
2024/01/07 07:52:44;;;;;;;3.60;1.60;;;;;;;;;;5095206;28;20035;-81
2024/01/07 07:55:12;;;;;;;3.28;1.85;;;;;;;;;;5091096;28;20159;-80
2024/01/07 07:57:38;;;;;;;3.30;1.98;;;;;;;;;;5071365;28;20054;-80
2024/01/07 08:00:05;;;;;;;4.53;2.25;;;;;;;;;;5061712;28;20068;-81
2024/01/07 08:02:31;;;;;;;3.17;1.85;;;;;;;;;;5083081;28;20518;-80
2024/01/07 08:04:57;;;;;;;6.05;2.80;;;;;;;;;;5055313;28;20040;-80
2024/01/07 08:07:23;;;;;;;5.38;2.22;;;;;;;;;;5061026;28;20043;-81
2024/01/07 08:09:49;;;;;;;3.03;1.90;;;;;;;;;;5092986;28;20122;-80
2024/01/07 08:12:15;;;;;;;2.90;1.90;;;;;;;;;;5089640;28;20069;-80
2024/01/07 08:14:42;;;;;;;4.60;2.08;;;;;;;;;;5083664;28;20095;-79
2024/01/07 08:17:08;;;;;;;6.32;2.67;;;;;;;;;;5091683;28;20035;-81
2024/01/07 08:19:34;;;;;;;7.78;3.22;;;;;;;;;;5075871;28;20386;-80
2024/01/07 08:22:00;;;;;;;6.47;3.03;;;;;;;;;;5066662;28;20044;-79
2024/01/07 08:24:27;;;;;;;4.07;1.88;;;;;;;;;;5064036;28;20044;-80
2024/01/07 08:26:54;;;;;;;3.45;1.85;;;;;;;;;;5085560;28;20032;-81
2024/01/07 08:29:20;;;;;;;3.95;1.60;;;;;;;;;;5097777;28;20123;-79
2024/01/07 08:31:46;;;;;;;4.35;2.85;;;;;;;;;;5064393;28;20124;-80
2024/01/07 08:34:13;;;;;;;4.10;1.83;;;;;;;;;;5090561;28;20043;-80
2024/01/07 08:36:39;;;;;;;5.45;2.28;;;;;;;;;;5068204;28;20028;-80
2024/01/07 08:39:05;;;;;;;3.55;1.40;;;;;;;;;;5071210;28;20040;-81
2024/01/07 08:41:31;;;;;;;5.05;1.90;;;;;;;;;;5080676;28;20123;-80
2024/01/07 08:43:57;;;;;;;4.10;1.90;;;;;;;;;;5065796;28;20032;-79
2024/01/07 08:46:23;;;;;;;2.72;1.85;;;;;;;;;;5062181;28;20535;-84
2024/01/07 08:48:49;;;;;;;3.20;1.50;;;;;;;;;;5053802;28;20054;-85
2024/01/07 08:51:16;;;;;;;6.18;1.98;;;;;;;;;;5080826;28;20131;-82
2024/01/07 08:53:42;;;;;;;2.53;1.67;;;;;;;;;;5084109;28;20035;-86
2024/01/07 08:56:08;;;;;;;2.90;1.75;;;;;;;;;;5069259;28;20052;-87
2024/01/07 08:58:37;;;;;;;2.00;1.67;;;;;;;;;;5074128;28;20036;-83
2024/01/07 09:01:03;;;;;;;2.85;1.80;;;;;;;;;;5066642;28;20047;-87
2024/01/07 09:03:29;;;;;;;2.67;2.03;;;;;;;;;;5082248;28;20048;-87
2024/01/07 09:05:59;;;;;;;2.78;1.73;;;;;;;;;;5081608;28;20028;-86
2024/01/07 09:08:25;;;;;;;2.95;1.70;;;;;;;;;;5084201;28;20090;-84
2024/01/07 09:10:51;;;;;;;6.03;1.55;;;;;;;;;;5085377;28;20539;-85
2024/01/07 09:13:17;;;;;;;3.78;1.65;;;;;;;;;;5077282;28;20126;-84
2024/01/07 09:15:43;;;;;;;4.40;3.20;;;;;;;;;;5072987;28;20090;-87
2024/01/07 09:18:09;;;;;;;2.15;1.67;;;;;;;;;;5085152;28;20041;-87
2024/01/07 09:20:36;;;;;;;3.38;1.50;;;;;;;;;;5061374;28;20513;-87
2024/01/07 09:23:02;;;;;;;3.55;2.42;;;;;;;;;;5075425;28;20040;-86
2024/01/07 09:25:29;;;;;;;4.38;1.70;;;;;;;;;;5071348;28;20089;-87
2024/01/07 09:27:55;;;;;;;5.00;1.98;;;;;;;;;;5054580;28;20032;-88
2024/01/07 09:30:21;;;;;;;3.85;1.85;;;;;;;;;;5070916;28;20044;-88
2024/01/07 09:32:47;;;;;;;4.13;1.40;;;;;;;;;;5056341;28;20040;-87
2024/01/07 09:35:13;;;;;;;5.90;1.95;;;;;;;;;;5054084;28;20066;-82
2024/01/07 09:37:39;;;;;;;4.38;1.70;;;;;;;;;;5066935;28;20078;-84
2024/01/07 09:40:06;;;;;;;2.38;1.70;;;;;;;;;;5091338;28;20114;-84
2024/01/07 09:42:32;;;;;;;3.90;1.60;;;;;;;;;;5060891;28;20044;-82
2024/01/07 09:45:03;;;;;;;3.30;1.65;;;;;;;;;;5083077;28;20032;-85
2024/01/07 09:47:29;;;;;;;2.72;1.75;;;;;;;;;;5088242;28;20031;-85
2024/01/07 09:49:56;;;;;;;3.97;1.75;;;;;;;;;;5086280;28;20145;-85
2024/01/07 09:52:22;;;;;;;4.32;2.55;;;;;;;;;;5054574;28;20506;-88
2024/01/07 09:54:56;;;;;;;6.47;2.17;;;;;;;;;;5065703;28;20676;-85
2024/01/07 09:57:22;;;;;;;1.77;1.60;;;;;;;;;;5080114;28;20495;-85
2024/01/07 09:59:48;;;;;;;3.15;2.15;;;;;;;;;;5079207;28;20044;-85
2024/01/07 10:02:16;;;;;;;5.90;1.92;;;;;;;;;;5068198;28;20071;-83
2024/01/07 10:04:42;;;;;;;2.80;2.03;;;;;;;;;;5061128;28;20094;-84
2024/01/07 10:07:09;;;;;;;4.35;2.00;;;;;;;;;;5098288;27;20048;-84
2024/01/07 10:09:35;;;;;;;3.63;2.00;;;;;;;;;;5062472;28;20040;-85
2024/01/07 10:12:02;;;;;;;4.70;2.60;;;;;;;;;;5057267;28;20119;-83
2024/01/07 10:14:29;;;;;;;5.22;2.75;;;;;;;;;;5088245;28;20519;-86
2024/01/07 10:16:58;;;;;;;6.95;3.28;;;;;;;;;;5085252;28;20115;-86
2024/01/07 10:19:25;;;;;;;7.07;3.38;;;;;;;;;;5074336;28;20033;-85
2024/01/07 10:22:05;;;;;;;5.10;2.88;;;;;;;;;;5084380;28;20046;-84
2024/01/07 10:24:41;;;;;;;3.85;2.67;;;;;;;;;;5069908;28;20043;-84
2024/01/07 10:27:07;;;;;;;9.60;4.80;;;;;;;;;;5080825;28;20044;-86
2024/01/07 10:29:34;;;;;;;6.50;3.45;;;;;;;;;;5065720;28;20067;-85
2024/01/07 10:32:05;;;;;;;7.22;3.10;;;;;;;;;;5077342;28;20044;-83
2024/01/07 10:34:37;;;;;;;6.85;3.15;;;;;;;;;;5062925;28;20109;-84
2024/01/07 10:37:04;;;;;;;7.03;3.42;;;;;;;;;;5092322;28;20570;-86
2024/01/07 10:39:31;;;;;;;6.82;2.22;;;;;;;;;;5084223;28;20052;-85
2024/01/07 10:41:57;;;;;;;7.47;2.80;;;;;;;;;;5069649;28;21654;-84
2024/01/07 10:44:27;;;;;;;6.63;2.85;;;;;;;;;;5069166;28;20040;-82
2024/01/07 10:46:56;;;;;;;3.20;2.38;;;;;;;;;;5081063;28;20417;-83
2024/01/07 10:49:26;;;;;;;5.00;2.53;;;;;;;;;;5058187;28;20486;-85
2024/01/07 10:52:06;;;;;;;5.28;2.67;;;;;;;;;;5062858;28;20033;-84
2024/01/07 10:54:35;;;;;;;4.75;2.55;;;;;;;;;;5062814;28;20391;-86
2024/01/07 10:57:18;;;;;;;3.92;2.47;;;;;;;;;;5085506;28;20453;-86
2024/01/07 10:59:45;;;;;;;6.68;2.92;;;;;;;;;;5067254;28;20136;-82
2024/01/07 11:02:13;;;;;;;6.88;2.78;;;;;;;;;;5081214;28;20102;-84
2024/01/07 11:04:55;;;;;;;5.30;3.10;;;;;;;;;;5084206;28;20082;-85
2024/01/07 11:07:34;;;;;;;6.22;2.95;;;;;;;;;;5080246;28;20037;-85
2024/01/07 11:10:08;;;;;;;6.50;3.25;;;;;;;;;;5062366;28;20072;-84
2024/01/07 11:12:34;;;;;;;6.85;2.67;;;;;;;;;;5070665;28;20044;-84
2024/01/07 11:15:00;;;;;;;5.18;2.70;;;;;;;;;;5069531;28;20040;-85
2024/01/07 11:17:32;;;;;;;5.07;2.97;;;;;;;;;;5082489;28;20093;-82
2024/01/07 11:20:02;;;;;;;7.55;3.72;;;;;;;;;;5081282;28;20048;-85
2024/01/07 11:22:28;;;;;;;5.90;3.40;;;;;;;;;;5082057;28;20097;-85
2024/01/07 11:24:58;;;;;;;4.28;2.88;;;;;;;;;;5052273;28;20138;-85
2024/01/07 11:27:25;;;;;;;7.32;3.45;;;;;;;;;;5066968;28;21153;-85
2024/01/07 11:29:56;;;;;;;5.63;3.08;;;;;;;;;;5079280;28;20119;-85
2024/01/07 11:32:24;;;;;;;6.85;2.80;;;;;;;;;;5083757;28;20028;-85
2024/01/07 11:34:53;;;;;;;6.40;2.97;;;;;;;;;;5068941;28;20066;-81
2024/01/07 11:37:19;;;;;;;3.60;2.72;;;;;;;;;;5045910;28;20387;-85
2024/01/07 11:39:46;;;;;;;7.25;2.00;;;;;;;;;;5086784;28;20414;-86
2024/01/07 11:42:13;;;;;;;8.95;2.85;;;;;;;;;;5070833;28;20039;-85
2024/01/07 11:44:48;;;;;;;4.07;2.40;;;;;;;;;;5076796;28;20496;-84
2024/01/07 11:47:14;;;;;;;4.78;2.85;;;;;;;;;;5086140;28;20437;-82
2024/01/07 11:49:40;;;;;;;7.15;3.35;;;;;;;;;;5059575;28;20432;-85
2024/01/07 11:52:06;;;;;;;8.57;4.32;;;;;;;;;;5065744;28;20396;-86
2024/01/07 11:54:32;;;;;;;8.98;4.50;;;;;;;;;;5066803;28;20115;-87
2024/01/07 11:56:59;;;;;;;6.97;3.83;;;;;;;;;;5055223;28;20048;-84
2024/01/07 11:59:26;;;;;;;8.15;3.58;;;;;;;;;;5056815;28;20072;-85
2024/01/07 12:01:52;;;;;;;4.88;3.30;;;;;;;;;;5056312;28;20040;-81
2024/01/07 12:04:18;;;;;;;7.30;3.63;;;;;;;;;;5081444;28;20070;-87
2024/01/07 12:06:44;;;;;;;9.63;3.33;;;;;;;;;;5066021;28;20035;-85
2024/01/07 12:09:13;;;;;;;7.30;3.50;;;;;;;;;;5063419;28;20044;-87
2024/01/07 12:11:40;;;;;;;5.50;3.25;;;;;;;;;;5087589;28;20039;-86
2024/01/07 12:14:08;;;;;;;4.18;2.80;;;;;;;;;;5061138;28;20036;-85
2024/01/07 12:16:34;;;;;;;7.50;2.58;;;;;;;;;;5086677;28;20044;-84
2024/01/07 12:19:00;;;;;;;5.30;2.95;;;;;;;;;;5085039;28;20036;-85
2024/01/07 12:21:28;;;;;;;5.18;2.90;;;;;;;;;;5084165;28;20161;-85
2024/01/07 12:23:55;;;;;;;4.90;2.25;;;;;;;;;;5060747;28;20043;-85
2024/01/07 12:26:26;;;;;;;4.95;2.47;;;;;;;;;;5080504;28;20501;-86
2024/01/07 12:28:57;;;;;;;4.45;2.58;;;;;;;;;;5065802;28;20036;-86
2024/01/07 12:31:29;;;;;;;5.65;2.55;;;;;;;;;;5065597;28;20127;-86
2024/01/07 12:33:56;;;;;;;4.93;2.50;;;;;;;;;;5064698;28;21029;-86
2024/01/07 12:36:23;;;;;;;5.18;2.40;;;;;;;;;;5084995;28;20035;-85
2024/01/07 12:38:49;;;;;;;4.35;3.00;;;;;;;;;;5083233;28;20069;-84
2024/01/07 12:41:16;;;;;;;5.90;3.05;;;;;;;;;;5066658;28;20040;-85
2024/01/07 12:43:42;;;;;;;5.45;2.70;;;;;;;;;;5087092;28;20048;-85
2024/01/07 12:46:08;;;;;;;3.65;2.00;;;;;;;;;;5054824;28;20133;-83
2024/01/07 12:48:34;;;;;;;4.60;2.58;;;;;;;;;;5063126;28;20036;-84
2024/01/07 12:51:01;;;;;;;13.52;3.28;;;;;;;;;;5065905;28;20496;-86
2024/01/07 12:53:27;;;;;;;4.68;2.80;;;;;;;;;;5067141;28;20047;-86
2024/01/07 12:55:53;;;;;;;5.90;2.97;;;;;;;;;;5067737;28;20075;-86
2024/01/07 12:58:20;;;;;;;6.72;3.03;;;;;;;;;;5085058;28;20303;-86
2024/01/07 13:00:47;;;;;;;5.40;2.70;;;;;;;;;;5085178;28;20506;-83
2024/01/07 13:03:17;;;;;;;4.72;2.97;;;;;;;;;;5067583;28;20051;-85
2024/01/07 13:05:45;;;;;;;5.70;2.80;;;;;;;;;;5065864;28;20040;-85
2024/01/07 13:08:12;;;;;;;4.93;3.30;;;;;;;;;;5068744;28;20048;-84
2024/01/07 13:10:39;;;;;;;5.78;3.58;;;;;;;;;;5087874;28;20052;-84
2024/01/07 13:13:05;;;;;;;9.85;3.72;;;;;;;;;;5072411;28;20036;-85
2024/01/07 13:15:31;;;;;;;8.43;3.35;;;;;;;;;;5067723;28;20058;-85
2024/01/07 13:17:57;;;;;;;7.05;4.07;;;;;;;;;;5088334;28;20043;-85
2024/01/07 13:20:23;;;;;;;8.27;3.88;;;;;;;;;;5087848;28;20110;-82
2024/01/07 13:22:50;;;;;;;4.45;3.20;;;;;;;;;;5070632;28;20835;-83
2024/01/07 13:25:16;;;;;;;9.00;3.80;;;;;;;;;;5079590;28;20036;-83
2024/01/07 13:27:42;;;;;;;6.43;3.08;;;;;;;;;;5088727;28;20032;-87
2024/01/07 13:30:09;;;;;;;6.35;3.00;;;;;;;;;;5074107;28;20519;-84
2024/01/07 13:32:36;;;;;;;6.88;3.00;;;;;;;;;;5060154;28;20071;-84
2024/01/07 13:35:10;;;;;;;10.60;3.45;;;;;;;;;;5062295;28;20586;-81
2024/01/07 13:37:36;;;;;;;5.25;2.85;;;;;;;;;;5083632;28;20044;-82
2024/01/07 13:40:03;;;;;;;5.18;3.10;;;;;;;;;;5064406;28;20043;-81
2024/01/07 13:42:29;;;;;;;4.20;2.88;;;;;;;;;;5080311;28;20410;-81
2024/01/07 13:44:56;;;;;;;6.70;3.92;;;;;;;;;;5088868;28;20063;-81
2024/01/07 13:47:22;;;;;;;7.78;3.97;;;;;;;;;;5082814;28;20168;-83
2024/01/07 13:49:48;;;;;;;6.03;3.65;;;;;;;;;;5076185;28;20059;-81
2024/01/07 13:52:14;;;;;;;5.32;3.63;;;;;;;;;;5056849;28;20033;-80
2024/01/07 13:54:40;;;;;;;8.63;4.20;;;;;;;;;;5070924;28;20131;-80
2024/01/07 13:57:06;;;;;;;10.77;4.10;;;;;;;;;;5063506;28;20521;-83
2024/01/07 13:59:33;;;;;;;7.18;3.65;;;;;;;;;;5053976;28;20160;-82
2024/01/07 14:01:59;;;;;;;8.93;3.53;;;;;;;;;;5052920;28;20032;-82
2024/01/07 14:04:25;;;;;;;7.20;3.45;;;;;;;;;;5068225;28;20048;-81
2024/01/07 14:06:58;;;;;;;7.82;3.80;;;;;;;;;;5079707;28;20132;-81
2024/01/07 14:09:24;;;;;;;7.57;3.60;;;;;;;;;;5078208;28;20796;-82
2024/01/07 14:11:51;;;;;;;6.78;3.78;;;;;;;;;;5068137;28;20050;-81
2024/01/07 14:14:19;;;;;;;6.82;3.55;;;;;;;;;;5073169;28;20036;-82
2024/01/07 14:16:45;;;;;;;5.97;3.38;;;;;;;;;;5084563;28;20094;-82
2024/01/07 14:19:11;;;;;;;9.00;3.83;;;;;;;;;;5078801;28;20116;-81
2024/01/07 14:21:37;;;;;;;7.25;3.30;;;;;;;;;;5082106;28;20399;-80
2024/01/07 14:24:03;;;;;;;10.07;2.92;;;;;;;;;;5088700;28;20036;-81
2024/01/07 14:26:29;;;;;;;4.13;2.63;;;;;;;;;;5066465;28;20040;-82
2024/01/07 14:28:55;;;;;;;9.80;3.20;;;;;;;;;;5082572;28;20385;-80
2024/01/07 14:31:21;;;;;;;7.22;3.15;;;;;;;;;;5091557;28;20460;-81
2024/01/07 14:33:47;;;;;;;3.88;2.35;;;;;;;;;;5056913;28;20093;-81
2024/01/07 14:36:16;;;;;;;4.63;2.92;;;;;;;;;;5066406;28;20079;-84
2024/01/07 14:38:49;;;;;;;5.07;2.60;;;;;;;;;;5056001;28;20050;-84
2024/01/07 14:41:15;;;;;;;4.00;2.50;;;;;;;;;;5066810;28;20056;-84